METAR Data
IDs: Format: Raw Decoded Include TAF

Data at: 2359 UTC 29 May 2020

METAR for:KADU (Audubon Cnty Arpt, IA, US)
Text:KADU 292355Z AUTO 31003KT 10SM CLR 23/06 A3016 RMK AO2
Temperature: 23.0°C ( 73°F)
Dewpoint: 6.0°C ( 43°F) [RH = 33%]
Pressure (altimeter):30.16 inches Hg (1021.4 mb)
Winds:from the NW (310 degrees) at 3 MPH (3 knots; 1.5 m/s)
Visibility:10 or more sm (16+ km)
Ceiling:at least 12,000 feet AGL
Clouds:sky clear below 12,000 feet AGL
QC Flag:automated observation with no human augmentation